sensor_id;sensor_type;location;lat;lon;timestamp;P1;durP1;ratioP1;P2;durP2;ratioP2
17790;SDS011;9019;48.132;-1.210;2022-10-03T00:00:17;15.27;;;8.30;;
17790;SDS011;9019;48.132;-1.210;2022-10-03T00:02:51;10.67;;;7.80;;
17790;SDS011;9019;48.132;-1.210;2022-10-03T00:05:27;11.82;;;8.00;;
17790;SDS011;9019;48.132;-1.210;2022-10-03T00:08:04;10.93;;;8.20;;
17790;SDS011;9019;48.132;-1.210;2022-10-03T00:10:37;11.07;;;7.20;;
17790;SDS011;9019;48.132;-1.210;2022-10-03T00:13:16;13.17;;;7.40;;
17790;SDS011;9019;48.132;-1.210;2022-10-03T00:15:48;16.50;;;8.10;;
17790;SDS011;9019;48.132;-1.210;2022-10-03T00:18:19;14.07;;;7.83;;
17790;SDS011;9019;48.132;-1.210;2022-10-03T00:20:52;13.27;;;7.83;;
17790;SDS011;9019;48.132;-1.210;2022-10-03T00:23:28;15.27;;;8.27;;
17790;SDS011;9019;48.132;-1.210;2022-10-03T00:26:04;16.77;;;8.67;;
17790;SDS011;9019;48.132;-1.210;2022-10-03T00:28:50;14.57;;;8.60;;
17790;SDS011;9019;48.132;-1.210;2022-10-03T00:31:21;17.13;;;8.53;;
17790;SDS011;9019;48.132;-1.210;2022-10-03T00:33:55;14.87;;;8.77;;
17790;SDS011;9019;48.132;-1.210;2022-10-03T00:36:29;16.17;;;8.87;;
17790;SDS011;9019;48.132;-1.210;2022-10-03T00:39:06;18.37;;;9.17;;
17790;SDS011;9019;48.132;-1.210;2022-10-03T00:41:41;15.23;;;8.53;;
17790;SDS011;9019;48.132;-1.210;2022-10-03T00:46:57;15.00;;;8.63;;
17790;SDS011;9019;48.132;-1.210;2022-10-03T00:49:46;16.57;;;8.73;;
17790;SDS011;9019;48.132;-1.210;2022-10-03T00:52:32;13.33;;;8.17;;
17790;SDS011;9019;48.132;-1.210;2022-10-03T00:55:07;13.07;;;8.73;;
17790;SDS011;9019;48.132;-1.210;2022-10-03T00:57:47;17.43;;;9.00;;
17790;SDS011;9019;48.132;-1.210;2022-10-03T01:00:21;14.60;;;8.73;;
17790;SDS011;9019;48.132;-1.210;2022-10-03T01:02:54;15.83;;;9.07;;
17790;SDS011;9019;48.132;-1.210;2022-10-03T01:05:30;14.33;;;8.63;;
17790;SDS011;9019;48.132;-1.210;2022-10-03T01:08:10;15.33;;;8.20;;
17790;SDS011;9019;48.132;-1.210;2022-10-03T01:10:48;17.93;;;8.50;;
17790;SDS011;9019;48.132;-1.210;2022-10-03T01:13:26;12.77;;;8.17;;
17790;SDS011;9019;48.132;-1.210;2022-10-03T01:15:58;13.97;;;7.50;;
17790;SDS011;9019;48.132;-1.210;2022-10-03T01:18:30;16.83;;;7.90;;
17790;SDS011;9019;48.132;-1.210;2022-10-03T01:21:03;13.33;;;7.53;;
17790;SDS011;9019;48.132;-1.210;2022-10-03T01:23:39;14.17;;;7.30;;
17790;SDS011;9019;48.132;-1.210;2022-10-03T01:26:18;14.00;;;7.37;;
17790;SDS011;9019;48.132;-1.210;2022-10-03T01:28:50;12.67;;;7.23;;
17790;SDS011;9019;48.132;-1.210;2022-10-03T01:31:38;12.97;;;7.00;;
17790;SDS011;9019;48.132;-1.210;2022-10-03T01:34:10;12.30;;;7.20;;
17790;SDS011;9019;48.132;-1.210;2022-10-03T01:36:40;15.70;;;6.97;;
17790;SDS011;9019;48.132;-1.210;2022-10-03T01:39:12;13.27;;;7.10;;
17790;SDS011;9019;48.132;-1.210;2022-10-03T01:41:43;14.53;;;7.00;;
17790;SDS011;9019;48.132;-1.210;2022-10-03T01:44:16;11.70;;;7.30;;
17790;SDS011;9019;48.132;-1.210;2022-10-03T01:46:49;14.90;;;7.27;;
17790;SDS011;9019;48.132;-1.210;2022-10-03T01:49:19;12.80;;;7.00;;
17790;SDS011;9019;48.132;-1.210;2022-10-03T01:51:51;12.87;;;7.30;;
17790;SDS011;9019;48.132;-1.210;2022-10-03T01:54:21;15.47;;;7.30;;
17790;SDS011;9019;48.132;-1.210;2022-10-03T01:56:55;12.37;;;7.93;;
17790;SDS011;9019;48.132;-1.210;2022-10-03T01:59:29;13.77;;;7.67;;
17790;SDS011;9019;48.132;-1.210;2022-10-03T02:02:00;14.27;;;7.83;;
17790;SDS011;9019;48.132;-1.210;2022-10-03T02:04:30;15.77;;;7.77;;
17790;SDS011;9019;48.132;-1.210;2022-10-03T02:07:04;13.60;;;8.00;;
17790;SDS011;9019;48.132;-1.210;2022-10-03T02:09:36;10.73;;;7.67;;
17790;SDS011;9019;48.132;-1.210;2022-10-03T02:12:08;17.13;;;7.43;;
17790;SDS011;9019;48.132;-1.210;2022-10-03T02:14:46;12.93;;;7.37;;
17790;SDS011;9019;48.132;-1.210;2022-10-03T02:17:26;14.30;;;7.93;;
17790;SDS011;9019;48.132;-1.210;2022-10-03T02:19:56;17.97;;;8.80;;
17790;SDS011;9019;48.132;-1.210;2022-10-03T02:22:28;16.30;;;8.83;;
17790;SDS011;9019;48.132;-1.210;2022-10-03T02:25:01;19.43;;;8.63;;
17790;SDS011;9019;48.132;-1.210;2022-10-03T02:27:36;13.77;;;8.40;;
17790;SDS011;9019;48.132;-1.210;2022-10-03T02:30:11;14.97;;;8.30;;
17790;SDS011;9019;48.132;-1.210;2022-10-03T02:32:51;13.10;;;;;
17790;SDS011;9019;48.132;-1.210;2022-10-03T02:38:29;17.00;;;8.57;;
17790;SDS011;9019;48.132;-1.210;2022-10-03T02:41:20;16.63;;;8.90;;
17790;SDS011;9019;48.132;-1.210;2022-10-03T02:52:11;11.77;;;7.73;;
17790;SDS011;9019;48.132;-1.210;2022-10-03T02:54:54;16.20;;;7.73;;
17790;SDS011;9019;48.132;-1.210;2022-10-03T03:00:09;13.20;;;7.93;;
17790;SDS011;9019;48.132;-1.210;2022-10-03T03:19:25;16.27;;;7.70;;
17790;SDS011;9019;48.132;-1.210;2022-10-03T03:21:57;12.87;;;7.17;;
17790;SDS011;9019;48.132;-1.210;2022-10-03T03:27:22;15.10;;;7.50;;
17790;SDS011;9019;48.132;-1.210;2022-10-03T03:29:54;13.53;;;7.10;;
17790;SDS011;9019;48.132;-1.210;2022-10-03T03:32:27;14.43;;;7.17;;
17790;SDS011;9019;48.132;-1.210;2022-10-03T03:35:01;14.33;;;7.13;;
17790;SDS011;9019;48.132;-1.210;2022-10-03T03:37:33;13.90;;;7.20;;
17790;SDS011;9019;48.132;-1.210;2022-10-03T03:40:07;11.90;;;7.83;;
17790;SDS011;9019;48.132;-1.210;2022-10-03T03:45:34;13.90;;;7.03;;
17790;SDS011;9019;48.132;-1.210;2022-10-03T03:48:12;15.43;;;7.47;;
17790;SDS011;9019;48.132;-1.210;2022-10-03T03:50:56;13.13;;;8.37;;
17790;SDS011;9019;48.132;-1.210;2022-10-03T03:56:24;15.87;;;8.20;;
17790;SDS011;9019;48.132;-1.210;2022-10-03T03:58:58;15.00;;;8.37;;
17790;SDS011;9019;48.132;-1.210;2022-10-03T04:01:42;17.33;;;8.40;;
17790;SDS011;9019;48.132;-1.210;2022-10-03T04:04:16;15.40;;;7.90;;
17790;SDS011;9019;48.132;-1.210;2022-10-03T04:06:54;15.87;;;8.23;;
17790;SDS011;9019;48.132;-1.210;2022-10-03T04:09:34;19.40;;;8.80;;
17790;SDS011;9019;48.132;-1.210;2022-10-03T04:12:08;16.10;;;8.17;;
17790;SDS011;9019;48.132;-1.210;2022-10-03T04:14:55;14.23;;;8.33;;
17790;SDS011;9019;48.132;-1.210;2022-10-03T04:17:29;18.43;;;9.13;;
17790;SDS011;9019;48.132;-1.210;2022-10-03T04:20:18;18.70;;;8.27;;
17790;SDS011;9019;48.132;-1.210;2022-10-03T04:25:40;14.57;;;8.13;;
17790;SDS011;9019;48.132;-1.210;2022-10-03T04:30:56;17.23;;;8.23;;
17790;SDS011;9019;48.132;-1.210;2022-10-03T04:33:30;15.00;;;8.67;;
17790;SDS011;9019;48.132;-1.210;2022-10-03T04:38:48;15.10;;;8.90;;
17790;SDS011;9019;48.132;-1.210;2022-10-03T04:41:23;17.03;;;9.10;;
17790;SDS011;9019;48.132;-1.210;2022-10-03T04:43:54;17.57;;;9.17;;
17790;SDS011;9019;48.132;-1.210;2022-10-03T04:46:26;19.53;;;9.47;;
17790;SDS011;9019;48.132;-1.210;2022-10-03T04:48:59;18.10;;;8.77;;
17790;SDS011;9019;48.132;-1.210;2022-10-03T04:51:33;16.40;;;8.93;;
17790;SDS011;9019;48.132;-1.210;2022-10-03T04:54:10;14.40;;;8.83;;
17790;SDS011;9019;48.132;-1.210;2022-10-03T04:56:43;17.07;;;8.70;;
17790;SDS011;9019;48.132;-1.210;2022-10-03T04:59:34;16.43;;;8.83;;
17790;SDS011;9019;48.132;-1.210;2022-10-03T05:02:07;20.67;;;9.30;;
17790;SDS011;9019;48.132;-1.210;2022-10-03T05:04:37;17.37;;;8.80;;
17790;SDS011;9019;48.132;-1.210;2022-10-03T05:07:10;15.73;;;8.60;;
17790;SDS011;9019;48.132;-1.210;2022-10-03T05:09:42;18.07;;;8.37;;
17790;SDS011;9019;48.132;-1.210;2022-10-03T05:12:13;18.50;;;9.60;;
17790;SDS011;9019;48.132;-1.210;2022-10-03T05:14:48;15.50;;;8.53;;
17790;SDS011;9019;48.132;-1.210;2022-10-03T05:17:19;15.13;;;8.73;;
17790;SDS011;9019;48.132;-1.210;2022-10-03T05:22:40;16.33;;;8.50;;
17790;SDS011;9019;48.132;-1.210;2022-10-03T05:25:13;13.30;;;8.20;;
17790;SDS011;9019;48.132;-1.210;2022-10-03T05:27:46;14.90;;;8.50;;
17790;SDS011;9019;48.132;-1.210;2022-10-03T05:30:16;14.97;;;7.90;;
17790;SDS011;9019;48.132;-1.210;2022-10-03T05:32:46;14.93;;;7.97;;
17790;SDS011;9019;48.132;-1.210;2022-10-03T05:35:18;14.43;;;8.27;;
17790;SDS011;9019;48.132;-1.210;2022-10-03T05:37:57;17.40;;;8.03;;
17790;SDS011;9019;48.132;-1.210;2022-10-03T05:40:26;13.73;;;8.03;;
17790;SDS011;9019;48.132;-1.210;2022-10-03T05:43:00;11.77;;;7.80;;
17790;SDS011;9019;48.132;-1.210;2022-10-03T05:45:29;15.03;;;8.27;;
17790;SDS011;9019;48.132;-1.210;2022-10-03T05:48:06;16.87;;;9.00;;
17790;SDS011;9019;48.132;-1.210;2022-10-03T05:56:21;19.23;;;8.97;;
17790;SDS011;9019;48.132;-1.210;2022-10-03T05:59:08;18.93;;;9.03;;
17790;SDS011;9019;48.132;-1.210;2022-10-03T06:01:49;11.93;;;8.60;;
17790;SDS011;9019;48.132;-1.210;2022-10-03T06:07:13;14.60;;;8.23;;
17790;SDS011;9019;48.132;-1.210;2022-10-03T06:12:30;16.90;;;8.43;;
17790;SDS011;9019;48.132;-1.210;2022-10-03T06:17:52;14.27;;;8.10;;
17790;SDS011;9019;48.132;-1.210;2022-10-03T06:20:37;13.37;;;7.97;;
17790;SDS011;9019;48.132;-1.210;2022-10-03T06:23:25;15.67;;;8.40;;
17790;SDS011;9019;48.132;-1.210;2022-10-03T06:26:17;14.83;;;8.33;;
17790;SDS011;9019;48.132;-1.210;2022-10-03T06:32:09;11.40;;;7.63;;
17790;SDS011;9019;48.132;-1.210;2022-10-03T06:37:50;10.73;;;7.17;;
17790;SDS011;9019;48.132;-1.210;2022-10-03T06:46:04;11.73;;;7.47;;
17790;SDS011;9019;48.132;-1.210;2022-10-03T06:48:38;10.30;;;7.33;;
17790;SDS011;9019;48.132;-1.210;2022-10-03T06:51:14;11.70;;;7.57;;
17790;SDS011;9019;48.132;-1.210;2022-10-03T06:59:23;12.10;;;7.23;;
17790;SDS011;9019;48.132;-1.210;2022-10-03T07:04:46;11.57;;;7.40;;
17790;SDS011;9019;48.132;-1.210;2022-10-03T07:07:35;9.60;;;7.27;;
17790;SDS011;9019;48.132;-1.210;2022-10-03T07:10:14;11.90;;;6.80;;
17790;SDS011;9019;48.132;-1.210;2022-10-03T07:27:03;12.07;;;6.63;;
17790;SDS011;9019;48.132;-1.210;2022-10-03T07:35:23;8.27;;;5.77;;
17790;SDS011;9019;48.132;-1.210;2022-10-03T07:38:22;9.40;;;6.00;;
17790;SDS011;9019;48.132;-1.210;2022-10-03T07:41:14;10.23;;;6.43;;
17790;SDS011;9019;48.132;-1.210;2022-10-03T07:43:48;11.60;;;5.60;;
17790;SDS011;9019;48.132;-1.210;2022-10-03T07:49:27;9.03;;;5.17;;
17790;SDS011;9019;48.132;-1.210;2022-10-03T07:55:00;8.82;;;5.00;;
17790;SDS011;9019;48.132;-1.210;2022-10-03T07:57:45;7.65;;;5.20;;
17790;SDS011;9019;48.132;-1.210;2022-10-03T08:00:21;8.00;;;4.80;;
17790;SDS011;9019;48.132;-1.210;2022-10-03T08:02:59;8.00;;;5.17;;
17790;SDS011;9019;48.132;-1.210;2022-10-03T08:05:33;8.30;;;4.50;;
17790;SDS011;9019;48.132;-1.210;2022-10-03T08:08:12;7.28;;;4.50;;
17790;SDS011;9019;48.132;-1.210;2022-10-03T08:11:03;9.70;;;4.80;;
17790;SDS011;9019;48.132;-1.210;2022-10-03T08:13:34;6.77;;;4.57;;
17790;SDS011;9019;48.132;-1.210;2022-10-03T08:16:12;8.67;;;4.20;;
17790;SDS011;9019;48.132;-1.210;2022-10-03T08:21:30;8.95;;;6.70;;
17790;SDS011;9019;48.132;-1.210;2022-10-03T08:24:06;11.70;;;8.90;;
17790;SDS011;9019;48.132;-1.210;2022-10-03T08:26:42;10.82;;;7.93;;
17790;SDS011;9019;48.132;-1.210;2022-10-03T08:37:46;11.25;;;8.20;;
17790;SDS011;9019;48.132;-1.210;2022-10-03T08:43:16;9.05;;;7.20;;
17790;SDS011;9019;48.132;-1.210;2022-10-03T08:45:57;12.40;;;8.50;;
17790;SDS011;9019;48.132;-1.210;2022-10-03T08:51:34;14.45;;;10.52;;
17790;SDS011;9019;48.132;-1.210;2022-10-03T08:54:12;14.65;;;12.10;;
17790;SDS011;9019;48.132;-1.210;2022-10-03T09:02:31;16.85;;;12.27;;
17790;SDS011;9019;48.132;-1.210;2022-10-03T09:07:59;15.82;;;12.35;;
17790;SDS011;9019;48.132;-1.210;2022-10-03T09:10:57;17.63;;;12.57;;
17790;SDS011;9019;48.132;-1.210;2022-10-03T09:13:45;15.63;;;12.18;;
17790;SDS011;9019;48.132;-1.210;2022-10-03T09:19:15;16.33;;;12.43;;
17790;SDS011;9019;48.132;-1.210;2022-10-03T09:22:00;17.30;;;13.20;;
17790;SDS011;9019;48.132;-1.210;2022-10-03T09:33:05;22.65;;;13.27;;
17790;SDS011;9019;48.132;-1.210;2022-10-03T09:41:20;16.90;;;11.90;;
17790;SDS011;9019;48.132;-1.210;2022-10-03T09:43:57;15.40;;;10.87;;
17790;SDS011;9019;48.132;-1.210;2022-10-03T09:46:47;14.35;;;10.00;;
17790;SDS011;9019;48.132;-1.210;2022-10-03T09:49:40;12.75;;;9.27;;
17790;SDS011;9019;48.132;-1.210;2022-10-03T09:52:25;13.02;;;9.63;;
17790;SDS011;9019;48.132;-1.210;2022-10-03T09:55:05;10.98;;;8.57;;
17790;SDS011;9019;48.132;-1.210;2022-10-03T09:57:39;10.07;;;8.15;;
17790;SDS011;9019;48.132;-1.210;2022-10-03T10:00:20;11.13;;;8.38;;
17790;SDS011;9019;48.132;-1.210;2022-10-03T10:08:44;9.07;;;7.57;;
17790;SDS011;9019;48.132;-1.210;2022-10-03T10:11:19;8.90;;;7.85;;
17790;SDS011;9019;48.132;-1.210;2022-10-03T10:16:33;9.02;;;6.07;;
17790;SDS011;9019;48.132;-1.210;2022-10-03T10:22:08;9.20;;;6.20;;
17790;SDS011;9019;48.132;-1.210;2022-10-03T10:25:00;6.38;;;5.70;;
17790;SDS011;9019;48.132;-1.210;2022-10-03T10:27:43;6.47;;;5.78;;
17790;SDS011;9019;48.132;-1.210;2022-10-03T10:30:20;7.93;;;5.20;;
17790;SDS011;9019;48.132;-1.210;2022-10-03T10:35:44;6.85;;;5.70;;
17790;SDS011;9019;48.132;-1.210;2022-10-03T10:38:23;9.20;;;5.60;;
17790;SDS011;9019;48.132;-1.210;2022-10-03T10:52:25;7.72;;;6.25;;
17790;SDS011;9019;48.132;-1.210;2022-10-03T11:00:45;8.45;;;6.03;;
17790;SDS011;9019;48.132;-1.210;2022-10-03T11:09:19;8.75;;;6.35;;
17790;SDS011;9019;48.132;-1.210;2022-10-03T11:23:18;8.23;;;5.80;;
17790;SDS011;9019;48.132;-1.210;2022-10-03T11:26:01;7.60;;;5.43;;
17790;SDS011;9019;48.132;-1.210;2022-10-03T11:31:34;7.13;;;5.38;;
17790;SDS011;9019;48.132;-1.210;2022-10-03T11:37:02;7.57;;;5.00;;
17790;SDS011;9019;48.132;-1.210;2022-10-03T11:39:32;6.97;;;4.53;;
17790;SDS011;9019;48.132;-1.210;2022-10-03T11:42:05;6.55;;;4.53;;
17790;SDS011;9019;48.132;-1.210;2022-10-03T11:44:36;5.40;;;4.80;;
17790;SDS011;9019;48.132;-1.210;2022-10-03T11:47:14;6.55;;;5.35;;
17790;SDS011;9019;48.132;-1.210;2022-10-03T11:52:51;6.47;;;5.07;;
17790;SDS011;9019;48.132;-1.210;2022-10-03T11:55:24;7.13;;;4.68;;
17790;SDS011;9019;48.132;-1.210;2022-10-03T11:58:00;6.15;;;4.80;;
17790;SDS011;9019;48.132;-1.210;2022-10-03T12:00:30;6.15;;;4.65;;
17790;SDS011;9019;48.132;-1.210;2022-10-03T12:03:07;6.43;;;4.80;;
17790;SDS011;9019;48.132;-1.210;2022-10-03T12:05:41;6.22;;;4.45;;
17790;SDS011;9019;48.132;-1.210;2022-10-03T12:08:14;7.20;;;4.07;;
17790;SDS011;9019;48.132;-1.210;2022-10-03T12:11:03;6.53;;;3.80;;
17790;SDS011;9019;48.132;-1.210;2022-10-03T12:13:37;6.10;;;3.95;;
17790;SDS011;9019;48.132;-1.210;2022-10-03T12:16:09;6.95;;;4.05;;
17790;SDS011;9019;48.132;-1.210;2022-10-03T12:18:49;5.93;;;4.53;;
17790;SDS011;9019;48.132;-1.210;2022-10-03T12:21:18;7.85;;;4.50;;
17790;SDS011;9019;48.132;-1.210;2022-10-03T12:26:35;6.68;;;4.25;;
17790;SDS011;9019;48.132;-1.210;2022-10-03T12:29:07;4.97;;;4.05;;
17790;SDS011;9019;48.132;-1.210;2022-10-03T12:31:38;4.72;;;4.10;;
17790;SDS011;9019;48.132;-1.210;2022-10-03T12:34:13;7.15;;;4.30;;
17790;SDS011;9019;48.132;-1.210;2022-10-03T12:36:47;6.25;;;4.30;;
17790;SDS011;9019;48.132;-1.210;2022-10-03T12:39:20;5.57;;;4.45;;
17790;SDS011;9019;48.132;-1.210;2022-10-03T12:41:55;6.32;;;4.38;;
17790;SDS011;9019;48.132;-1.210;2022-10-03T12:44:28;5.68;;;4.45;;
17790;SDS011;9019;48.132;-1.210;2022-10-03T12:47:04;5.75;;;3.90;;
17790;SDS011;9019;48.132;-1.210;2022-10-03T12:49:38;5.20;;;3.42;;
17790;SDS011;9019;48.132;-1.210;2022-10-03T12:52:14;5.65;;;3.58;;
17790;SDS011;9019;48.132;-1.210;2022-10-03T12:54:44;5.13;;;4.00;;
17790;SDS011;9019;48.132;-1.210;2022-10-03T12:57:26;5.30;;;3.83;;
17790;SDS011;9019;48.132;-1.210;2022-10-03T13:00:01;5.03;;;3.72;;
17790;SDS011;9019;48.132;-1.210;2022-10-03T13:02:31;5.47;;;3.60;;
17790;SDS011;9019;48.132;-1.210;2022-10-03T13:07:45;4.30;;;3.53;;
17790;SDS011;9019;48.132;-1.210;2022-10-03T13:10:18;4.63;;;3.30;;
17790;SDS011;9019;48.132;-1.210;2022-10-03T13:12:50;4.38;;;3.63;;
17790;SDS011;9019;48.132;-1.210;2022-10-03T13:20:56;4.95;;;3.30;;
17790;SDS011;9019;48.132;-1.210;2022-10-03T13:23:27;7.53;;;3.75;;
17790;SDS011;9019;48.132;-1.210;2022-10-03T13:25:59;4.78;;;3.67;;
17790;SDS011;9019;48.132;-1.210;2022-10-03T13:28:32;5.05;;;3.33;;
17790;SDS011;9019;48.132;-1.210;2022-10-03T13:31:02;6.60;;;3.80;;
17790;SDS011;9019;48.132;-1.210;2022-10-03T13:33:31;5.10;;;3.30;;
17790;SDS011;9019;48.132;-1.210;2022-10-03T13:36:03;5.93;;;3.40;;
17790;SDS011;9019;48.132;-1.210;2022-10-03T13:38:40;5.13;;;3.10;;
17790;SDS011;9019;48.132;-1.210;2022-10-03T13:41:13;6.15;;;3.47;;
17790;SDS011;9019;48.132;-1.210;2022-10-03T13:43:44;4.32;;;2.85;;
17790;SDS011;9019;48.132;-1.210;2022-10-03T13:46:14;4.50;;;2.63;;
17790;SDS011;9019;48.132;-1.210;2022-10-03T13:48:45;5.10;;;2.55;;
17790;SDS011;9019;48.132;-1.210;2022-10-03T13:51:18;5.80;;;3.10;;
17790;SDS011;9019;48.132;-1.210;2022-10-03T13:53:55;4.63;;;2.83;;
17790;SDS011;9019;48.132;-1.210;2022-10-03T13:56:30;4.72;;;2.70;;
17790;SDS011;9019;48.132;-1.210;2022-10-03T13:59:02;4.95;;;2.97;;
17790;SDS011;9019;48.132;-1.210;2022-10-03T14:01:46;4.80;;;2.60;;
17790;SDS011;9019;48.132;-1.210;2022-10-03T14:07:06;4.80;;;3.08;;
17790;SDS011;9019;48.132;-1.210;2022-10-03T14:09:37;3.80;;;2.85;;
17790;SDS011;9019;48.132;-1.210;2022-10-03T14:12:14;3.47;;;2.40;;
17790;SDS011;9019;48.132;-1.210;2022-10-03T14:14:49;4.85;;;2.78;;
17790;SDS011;9019;48.132;-1.210;2022-10-03T14:17:20;2.78;;;2.58;;
17790;SDS011;9019;48.132;-1.210;2022-10-03T14:19:53;6.03;;;2.92;;
17790;SDS011;9019;48.132;-1.210;2022-10-03T14:25:13;5.00;;;2.70;;
17790;SDS011;9019;48.132;-1.210;2022-10-03T14:27:45;5.75;;;2.38;;
17790;SDS011;9019;48.132;-1.210;2022-10-03T14:30:14;3.72;;;2.85;;
17790;SDS011;9019;48.132;-1.210;2022-10-03T14:35:35;3.67;;;2.45;;
17790;SDS011;9019;48.132;-1.210;2022-10-03T14:38:08;3.05;;;2.53;;
17790;SDS011;9019;48.132;-1.210;2022-10-03T14:40:41;4.07;;;2.67;;
17790;SDS011;9019;48.132;-1.210;2022-10-03T14:43:14;3.75;;;2.58;;
17790;SDS011;9019;48.132;-1.210;2022-10-03T14:45:42;3.53;;;2.22;;
17790;SDS011;9019;48.132;-1.210;2022-10-03T14:48:11;4.07;;;2.28;;
17790;SDS011;9019;48.132;-1.210;2022-10-03T14:50:40;4.35;;;2.10;;
17790;SDS011;9019;48.132;-1.210;2022-10-03T14:53:11;5.00;;;2.78;;
17790;SDS011;9019;48.132;-1.210;2022-10-03T14:55:44;3.78;;;2.40;;
17790;SDS011;9019;48.132;-1.210;2022-10-03T14:58:15;2.70;;;2.50;;
17790;SDS011;9019;48.132;-1.210;2022-10-03T15:00:43;2.85;;;2.30;;
17790;SDS011;9019;48.132;-1.210;2022-10-03T15:03:21;5.05;;;2.60;;
17790;SDS011;9019;48.132;-1.210;2022-10-03T15:06:00;4.40;;;2.60;;
17790;SDS011;9019;48.132;-1.210;2022-10-03T15:08:29;4.32;;;2.67;;
17790;SDS011;9019;48.132;-1.210;2022-10-03T15:10:59;2.30;;;1.85;;
17790;SDS011;9019;48.132;-1.210;2022-10-03T15:13:27;4.55;;;2.33;;
17790;SDS011;9019;48.132;-1.210;2022-10-03T15:15:54;3.40;;;2.28;;
17790;SDS011;9019;48.132;-1.210;2022-10-03T15:18:22;3.72;;;2.17;;
17790;SDS011;9019;48.132;-1.210;2022-10-03T15:20:51;3.17;;;2.55;;
17790;SDS011;9019;48.132;-1.210;2022-10-03T15:23:19;3.33;;;2.40;;
17790;SDS011;9019;48.132;-1.210;2022-10-03T15:25:47;4.35;;;2.58;;
17790;SDS011;9019;48.132;-1.210;2022-10-03T15:28:20;4.82;;;2.72;;
17790;SDS011;9019;48.132;-1.210;2022-10-03T15:30:48;4.20;;;2.22;;
17790;SDS011;9019;48.132;-1.210;2022-10-03T15:33:17;4.30;;;2.80;;
17790;SDS011;9019;48.132;-1.210;2022-10-03T15:35:48;3.13;;;2.30;;
17790;SDS011;9019;48.132;-1.210;2022-10-03T15:38:20;3.35;;;2.30;;
17790;SDS011;9019;48.132;-1.210;2022-10-03T15:40:51;4.35;;;2.60;;
17790;SDS011;9019;48.132;-1.210;2022-10-03T15:43:29;4.50;;;2.70;;
17790;SDS011;9019;48.132;-1.210;2022-10-03T15:45:59;4.82;;;2.50;;
17790;SDS011;9019;48.132;-1.210;2022-10-03T15:48:28;3.15;;;2.50;;
17790;SDS011;9019;48.132;-1.210;2022-10-03T15:50:55;5.10;;;2.72;;
17790;SDS011;9019;48.132;-1.210;2022-10-03T15:53:23;4.38;;;2.70;;
17790;SDS011;9019;48.132;-1.210;2022-10-03T15:55:53;4.25;;;2.70;;
17790;SDS011;9019;48.132;-1.210;2022-10-03T15:58:23;4.03;;;2.75;;
17790;SDS011;9019;48.132;-1.210;2022-10-03T16:00:53;2.85;;;2.58;;
17790;SDS011;9019;48.132;-1.210;2022-10-03T16:03:23;3.00;;;2.50;;
17790;SDS011;9019;48.132;-1.210;2022-10-03T16:05:55;3.05;;;2.63;;
17790;SDS011;9019;48.132;-1.210;2022-10-03T16:08:27;7.07;;;2.85;;
17790;SDS011;9019;48.132;-1.210;2022-10-03T16:11:00;4.28;;;2.67;;
17790;SDS011;9019;48.132;-1.210;2022-10-03T16:13:32;3.65;;;2.47;;
17790;SDS011;9019;48.132;-1.210;2022-10-03T16:16:11;3.88;;;3.03;;
17790;SDS011;9019;48.132;-1.210;2022-10-03T16:18:41;3.65;;;3.05;;
17790;SDS011;9019;48.132;-1.210;2022-10-03T16:21:11;5.28;;;3.70;;
17790;SDS011;9019;48.132;-1.210;2022-10-03T16:23:40;3.60;;;3.30;;
17790;SDS011;9019;48.132;-1.210;2022-10-03T16:26:11;4.78;;;3.30;;
17790;SDS011;9019;48.132;-1.210;2022-10-03T16:28:40;3.97;;;3.20;;
17790;SDS011;9019;48.132;-1.210;2022-10-03T16:31:12;4.57;;;3.13;;
17790;SDS011;9019;48.132;-1.210;2022-10-03T16:33:45;4.55;;;3.20;;
17790;SDS011;9019;48.132;-1.210;2022-10-03T16:36:16;3.72;;;3.33;;
17790;SDS011;9019;48.132;-1.210;2022-10-03T16:38:44;4.97;;;3.38;;
17790;SDS011;9019;48.132;-1.210;2022-10-03T16:41:13;4.45;;;3.70;;
17790;SDS011;9019;48.132;-1.210;2022-10-03T16:43:41;3.45;;;3.03;;
17790;SDS011;9019;48.132;-1.210;2022-10-03T16:46:21;5.63;;;3.33;;
17790;SDS011;9019;48.132;-1.210;2022-10-03T16:48:53;6.45;;;3.63;;
17790;SDS011;9019;48.132;-1.210;2022-10-03T16:51:39;4.68;;;3.80;;
17790;SDS011;9019;48.132;-1.210;2022-10-03T16:56:58;5.22;;;3.70;;
17790;SDS011;9019;48.132;-1.210;2022-10-03T16:59:27;5.10;;;3.50;;
17790;SDS011;9019;48.132;-1.210;2022-10-03T17:01:57;5.00;;;3.30;;
17790;SDS011;9019;48.132;-1.210;2022-10-03T17:04:27;4.90;;;3.22;;
17790;SDS011;9019;48.132;-1.210;2022-10-03T17:06:57;3.83;;;3.40;;
17790;SDS011;9019;48.132;-1.210;2022-10-03T17:09:26;4.97;;;3.45;;
17790;SDS011;9019;48.132;-1.210;2022-10-03T17:11:57;3.70;;;3.30;;
17790;SDS011;9019;48.132;-1.210;2022-10-03T17:14:25;4.82;;;3.35;;
17790;SDS011;9019;48.132;-1.210;2022-10-03T17:16:55;4.57;;;3.33;;
17790;SDS011;9019;48.132;-1.210;2022-10-03T17:19:29;3.80;;;3.00;;
17790;SDS011;9019;48.132;-1.210;2022-10-03T17:22:01;3.47;;;3.00;;
17790;SDS011;9019;48.132;-1.210;2022-10-03T17:24:34;4.68;;;3.28;;
17790;SDS011;9019;48.132;-1.210;2022-10-03T17:27:06;4.10;;;3.13;;
17790;SDS011;9019;48.132;-1.210;2022-10-03T17:29:35;5.25;;;2.97;;
17790;SDS011;9019;48.132;-1.210;2022-10-03T17:32:09;4.63;;;3.22;;
17790;SDS011;9019;48.132;-1.210;2022-10-03T17:34:41;4.72;;;3.00;;
17790;SDS011;9019;48.132;-1.210;2022-10-03T17:37:12;3.63;;;3.13;;
17790;SDS011;9019;48.132;-1.210;2022-10-03T17:39:42;4.93;;;3.25;;
17790;SDS011;9019;48.132;-1.210;2022-10-03T17:42:15;4.43;;;3.25;;
17790;SDS011;9019;48.132;-1.210;2022-10-03T17:44:45;3.65;;;2.90;;
17790;SDS011;9019;48.132;-1.210;2022-10-03T17:47:18;4.55;;;3.28;;
17790;SDS011;9019;48.132;-1.210;2022-10-03T17:49:51;4.60;;;2.42;;
17790;SDS011;9019;48.132;-1.210;2022-10-03T17:52:21;4.38;;;2.47;;
17790;SDS011;9019;48.132;-1.210;2022-10-03T17:54:50;3.03;;;2.63;;
17790;SDS011;9019;48.132;-1.210;2022-10-03T17:57:21;4.53;;;2.50;;
17790;SDS011;9019;48.132;-1.210;2022-10-03T17:59:56;4.25;;;2.45;;
17790;SDS011;9019;48.132;-1.210;2022-10-03T18:02:29;11.15;;;3.13;;
17790;SDS011;9019;48.132;-1.210;2022-10-03T18:05:01;6.28;;;2.75;;
17790;SDS011;9019;48.132;-1.210;2022-10-03T18:07:30;4.60;;;2.83;;
17790;SDS011;9019;48.132;-1.210;2022-10-03T18:09:59;5.65;;;3.03;;
17790;SDS011;9019;48.132;-1.210;2022-10-03T18:12:28;3.78;;;2.97;;
17790;SDS011;9019;48.132;-1.210;2022-10-03T18:17:47;4.45;;;3.20;;
17790;SDS011;9019;48.132;-1.210;2022-10-03T18:20:21;4.95;;;3.15;;
17790;SDS011;9019;48.132;-1.210;2022-10-03T18:22:54;3.90;;;3.05;;
17790;SDS011;9019;48.132;-1.210;2022-10-03T18:25:24;4.03;;;2.83;;
17790;SDS011;9019;48.132;-1.210;2022-10-03T18:28:13;3.38;;;3.00;;
17790;SDS011;9019;48.132;-1.210;2022-10-03T18:30:45;3.85;;;2.75;;
17790;SDS011;9019;48.132;-1.210;2022-10-03T18:33:14;8.63;;;2.83;;
17790;SDS011;9019;48.132;-1.210;2022-10-03T18:35:44;3.22;;;2.75;;
17790;SDS011;9019;48.132;-1.210;2022-10-03T18:38:13;4.90;;;2.95;;
17790;SDS011;9019;48.132;-1.210;2022-10-03T18:40:45;3.17;;;2.67;;
17790;SDS011;9019;48.132;-1.210;2022-10-03T18:43:25;3.53;;;3.03;;
17790;SDS011;9019;48.132;-1.210;2022-10-03T18:45:53;4.45;;;3.08;;
17790;SDS011;9019;48.132;-1.210;2022-10-03T18:48:22;4.65;;;3.17;;
17790;SDS011;9019;48.132;-1.210;2022-10-03T18:50:55;3.67;;;2.95;;
17790;SDS011;9019;48.132;-1.210;2022-10-03T18:53:25;4.38;;;3.00;;
17790;SDS011;9019;48.132;-1.210;2022-10-03T18:55:56;3.72;;;2.50;;
17790;SDS011;9019;48.132;-1.210;2022-10-03T18:58:24;3.92;;;2.70;;
17790;SDS011;9019;48.132;-1.210;2022-10-03T19:00:56;3.97;;;2.40;;
17790;SDS011;9019;48.132;-1.210;2022-10-03T19:03:26;3.72;;;2.60;;
17790;SDS011;9019;48.132;-1.210;2022-10-03T19:06:01;3.10;;;2.80;;
17790;SDS011;9019;48.132;-1.210;2022-10-03T19:08:31;4.22;;;2.85;;
17790;SDS011;9019;48.132;-1.210;2022-10-03T19:11:01;3.35;;;2.58;;
17790;SDS011;9019;48.132;-1.210;2022-10-03T19:13:36;4.35;;;3.10;;
17790;SDS011;9019;48.132;-1.210;2022-10-03T19:16:12;3.55;;;3.25;;
17790;SDS011;9019;48.132;-1.210;2022-10-03T19:18:41;5.30;;;3.10;;
17790;SDS011;9019;48.132;-1.210;2022-10-03T19:21:13;3.63;;;3.13;;